createdAt,value
2023-03-13T00:01:31.313Z,6.95
2023-03-13T00:03:59.655Z,6.72
2023-03-13T00:06:32.326Z,5.47
2023-03-13T00:09:02.277Z,4.60
2023-03-13T00:11:31.985Z,5.40
2023-03-13T00:14:02.246Z,3.75
2023-03-13T00:16:30.944Z,5.22
2023-03-13T00:18:59.989Z,2.17
2023-03-13T00:21:29.917Z,3.72
2023-03-13T00:23:59.886Z,4.05
2023-03-13T00:26:30.183Z,5.25
2023-03-13T00:29:00.442Z,3.67
2023-03-13T00:31:31.083Z,2.42
2023-03-13T00:34:01.456Z,2.70
2023-03-13T00:36:32.126Z,2.17
2023-03-13T00:39:01.203Z,3.70
2023-03-13T00:41:31.149Z,2.20
2023-03-13T00:44:01.354Z,5.03
2023-03-13T00:46:32.747Z,2.55
2023-03-13T00:49:01.021Z,1.77
2023-03-13T00:51:29.841Z,1.45
2023-03-13T00:54:00.504Z,3.00
2023-03-13T00:56:29.718Z,3.63
2023-03-13T00:58:58.232Z,1.08
2023-03-13T01:01:30.048Z,2.50
2023-03-13T01:04:00.038Z,1.65
2023-03-13T01:06:30.529Z,1.50
2023-03-13T01:09:00.196Z,3.67
2023-03-13T01:11:30.281Z,2.60
2023-03-13T01:14:01.117Z,2.25
2023-03-13T01:16:33.143Z,1.63
2023-03-13T01:19:03.378Z,1.25
2023-03-13T01:21:32.125Z,2.15
2023-03-13T01:24:00.505Z,1.35
2023-03-13T01:26:29.207Z,3.17
2023-03-13T01:28:58.114Z,1.75
2023-03-13T01:31:29.302Z,2.15
2023-03-13T01:34:00.881Z,1.75
2023-03-13T01:36:30.483Z,3.20
2023-03-13T01:39:00.948Z,2.05
2023-03-13T01:41:31.241Z,2.03
2023-03-13T01:43:59.645Z,2.85
2023-03-13T01:46:37.098Z,1.75
2023-03-13T01:49:13.848Z,2.83
2023-03-13T01:52:05.028Z,1.85
2023-03-13T01:54:40.348Z,1.55
2023-03-13T01:57:13.265Z,1.00
2023-03-13T01:59:45.376Z,2.35
2023-03-13T02:02:15.987Z,1.42
2023-03-13T02:04:53.180Z,0.95
2023-03-13T02:07:27.971Z,1.58
2023-03-13T02:09:58.838Z,1.45
2023-03-13T02:12:32.382Z,2.97
2023-03-13T02:15:05.306Z,1.67
2023-03-13T02:17:35.823Z,2.08
2023-03-13T02:20:07.163Z,3.63
2023-03-13T02:22:41.255Z,1.40
2023-03-13T02:25:22.994Z,1.42
2023-03-13T02:27:56.255Z,1.02
2023-03-13T02:30:25.853Z,1.05
2023-03-13T02:32:54.348Z,1.77
2023-03-13T02:35:24.625Z,1.45
2023-03-13T02:37:57.359Z,1.63
2023-03-13T02:40:30.545Z,1.02
2023-03-13T02:43:02.717Z,2.17
2023-03-13T02:45:31.225Z,2.03
2023-03-13T02:48:01.017Z,1.33
2023-03-13T02:50:29.815Z,1.15
2023-03-13T02:53:03.088Z,1.27
2023-03-13T02:55:37.749Z,2.78
2023-03-13T02:58:08.040Z,2.53
2023-03-13T03:00:38.638Z,1.08
2023-03-13T03:03:06.868Z,0.82
2023-03-13T03:05:35.283Z,1.00
2023-03-13T03:08:03.508Z,1.55
2023-03-13T03:10:32.396Z,2.40
2023-03-13T03:13:00.725Z,0.98
2023-03-13T03:15:30.730Z,1.52
2023-03-13T03:17:59.005Z,1.40
2023-03-13T03:20:27.249Z,0.75
2023-03-13T03:22:55.508Z,2.28
2023-03-13T03:25:23.822Z,0.82
2023-03-13T03:27:52.128Z,1.20
2023-03-13T03:30:20.978Z,1.15
2023-03-13T03:32:51.067Z,1.05
2023-03-13T03:35:19.442Z,1.20
2023-03-13T03:37:47.812Z,1.50
2023-03-13T03:40:16.628Z,1.17
2023-03-13T03:42:45.591Z,0.98
2023-03-13T03:45:13.981Z,0.80
2023-03-13T03:47:42.364Z,1.50
2023-03-13T03:50:13.138Z,1.27
2023-03-13T03:52:52.041Z,0.95
2023-03-13T03:55:21.242Z,2.25
2023-03-13T03:57:49.562Z,1.77
2023-03-13T04:00:28.739Z,0.90
2023-03-13T04:02:57.362Z,1.27
2023-03-13T04:05:27.016Z,1.08
2023-03-13T04:07:55.566Z,0.70
2023-03-13T04:10:23.880Z,0.68
2023-03-13T04:12:52.472Z,1.20
2023-03-13T04:15:21.039Z,0.85
2023-03-13T04:17:49.940Z,0.80
2023-03-13T04:20:22.564Z,1.35
2023-03-13T04:22:52.307Z,0.55
2023-03-13T04:25:21.896Z,1.25
2023-03-13T04:27:52.745Z,1.17
2023-03-13T04:30:23.922Z,0.75
2023-03-13T04:33:14.797Z,0.70
2023-03-13T04:36:03.084Z,0.80
2023-03-13T04:38:47.884Z,1.05
2023-03-13T04:41:34.826Z,1.10
2023-03-13T04:44:15.068Z,1.33
2023-03-13T04:46:43.336Z,0.80
2023-03-13T04:49:32.104Z,2.05
2023-03-13T04:52:35.630Z,0.60
2023-03-13T04:55:08.862Z,1.02
2023-03-13T04:58:09.244Z,0.85
2023-03-13T05:01:06.082Z,0.50
2023-03-13T05:03:54.790Z,1.08
2023-03-13T05:06:37.720Z,1.52
2023-03-13T05:09:17.969Z,2.40
2023-03-13T05:12:01.705Z,0.55
2023-03-13T05:14:56.537Z,2.75
2023-03-13T05:17:27.379Z,1.30
2023-03-13T05:20:27.781Z,0.63
2023-03-13T05:22:56.593Z,0.50
2023-03-13T05:25:54.167Z,1.48
2023-03-13T05:28:42.269Z,0.65
2023-03-13T05:31:42.657Z,2.33
2023-03-13T05:34:32.487Z,1.35
2023-03-13T05:37:25.770Z,1.08
2023-03-13T05:40:20.967Z,1.13
2023-03-13T05:42:58.110Z,1.48
2023-03-13T05:45:35.266Z,0.85
2023-03-13T05:48:12.467Z,0.77
2023-03-13T05:51:03.661Z,0.70
2023-03-13T05:53:52.106Z,0.80
2023-03-13T05:56:38.695Z,0.52
2023-03-13T05:59:15.461Z,0.70
2023-03-13T06:02:17.213Z,6.53
2023-03-13T06:04:48.374Z,1.90
2023-03-13T06:07:17.040Z,0.85
2023-03-13T06:09:45.470Z,1.02
2023-03-13T06:12:13.801Z,1.42
2023-03-13T06:14:42.246Z,1.17
2023-03-13T06:17:17.543Z,1.17
2023-03-13T06:19:47.173Z,0.80
2023-03-13T06:22:17.082Z,1.25
2023-03-13T06:24:48.946Z,1.67
2023-03-13T06:27:17.443Z,0.98
2023-03-13T06:29:45.771Z,0.73
2023-03-13T06:32:14.074Z,0.70
2023-03-13T06:34:43.807Z,1.10
2023-03-13T06:37:12.498Z,0.63
2023-03-13T06:39:40.698Z,0.93
2023-03-13T06:42:09.212Z,0.90
2023-03-13T06:44:37.487Z,0.80
2023-03-13T06:47:06.028Z,1.15
2023-03-13T06:49:34.458Z,0.80
2023-03-13T06:52:04.072Z,1.35
2023-03-13T06:54:32.396Z,1.30
2023-03-13T06:57:00.625Z,0.68
2023-03-13T06:59:29.070Z,1.08
2023-03-13T07:01:57.514Z,0.77
2023-03-13T07:04:25.784Z,1.00
2023-03-13T07:06:54.043Z,1.02
2023-03-13T07:09:23.660Z,1.10
2023-03-13T07:11:51.930Z,0.90
2023-03-13T07:14:20.183Z,2.70
2023-03-13T07:16:48.557Z,0.60
2023-03-13T07:19:17.245Z,2.70
2023-03-13T07:21:46.982Z,0.90
2023-03-13T07:24:15.256Z,0.93
2023-03-13T07:27:01.587Z,1.80
2023-03-13T07:29:32.396Z,1.33
2023-03-13T07:32:00.692Z,1.67
2023-03-13T07:34:29.081Z,0.82
2023-03-13T07:36:57.517Z,1.65
2023-03-13T07:39:25.888Z,1.90
2023-03-13T07:41:55.499Z,1.48
2023-03-13T07:44:23.768Z,1.30
2023-03-13T07:46:52.132Z,2.03
2023-03-13T07:49:20.403Z,0.80
2023-03-13T07:51:51.083Z,1.00
2023-03-13T07:54:19.588Z,1.37
2023-03-13T07:56:47.815Z,1.20
2023-03-13T07:59:17.397Z,1.85
2023-03-13T08:01:45.918Z,1.13
2023-03-13T08:04:15.140Z,2.80
2023-03-13T08:06:43.620Z,1.73
2023-03-13T08:09:12.009Z,1.38
2023-03-13T08:11:41.508Z,3.03
2023-03-13T08:14:10.016Z,2.05
2023-03-13T08:16:39.905Z,1.88
2023-03-13T08:19:08.235Z,1.15
2023-03-13T08:21:38.349Z,3.00
2023-03-13T08:24:08.613Z,1.63
2023-03-13T08:26:38.870Z,2.38
2023-03-13T08:29:10.082Z,1.65
2023-03-13T08:31:44.101Z,2.63
2023-03-13T08:34:14.039Z,2.75
2023-03-13T08:36:43.216Z,1.67
2023-03-13T08:39:13.798Z,4.32
2023-03-13T08:41:42.552Z,1.27
2023-03-13T08:44:13.320Z,1.75
2023-03-13T08:46:44.048Z,3.08
2023-03-13T08:49:13.451Z,2.97
2023-03-13T08:51:41.993Z,2.15
2023-03-13T08:54:10.991Z,1.98
2023-03-13T08:56:40.986Z,2.22
2023-03-13T08:59:09.408Z,1.77
2023-03-13T09:01:38.355Z,1.55
2023-03-13T09:04:08.617Z,3.45
2023-03-13T09:06:39.118Z,2.25
2023-03-13T09:09:08.420Z,1.60
2023-03-13T09:11:38.248Z,2.53
2023-03-13T09:14:08.305Z,1.90
2023-03-13T09:16:36.883Z,2.28
2023-03-13T09:19:05.558Z,2.13
2023-03-13T09:21:37.264Z,1.85
2023-03-13T09:26:33.828Z,2.47
2023-03-13T09:29:02.213Z,1.75
2023-03-13T09:31:32.931Z,2.67
2023-03-13T09:34:01.931Z,3.70
2023-03-13T09:36:30.471Z,2.95
2023-03-13T09:39:00.998Z,1.50
2023-03-13T09:41:36.300Z,2.05
2023-03-13T09:44:18.783Z,2.00
2023-03-13T09:46:50.801Z,2.38
2023-03-13T09:49:31.250Z,4.00
2023-03-13T09:52:12.348Z,1.90
2023-03-13T09:54:47.186Z,1.52
2023-03-13T09:57:21.144Z,1.58
2023-03-13T09:59:54.690Z,1.65
2023-03-13T10:02:30.877Z,0.98
2023-03-13T10:05:08.597Z,2.70
2023-03-13T10:07:37.506Z,1.75
2023-03-13T10:10:12.752Z,1.77
2023-03-13T10:12:45.892Z,1.65
2023-03-13T10:15:39.770Z,1.67
2023-03-13T10:18:16.962Z,1.60
2023-03-13T10:20:47.890Z,1.20
2023-03-13T10:23:21.422Z,2.38
2023-03-13T10:25:51.134Z,2.33
2023-03-13T10:28:22.547Z,1.90
2023-03-13T10:30:54.769Z,2.40
2023-03-13T10:33:28.009Z,1.48
2023-03-13T10:36:11.488Z,1.88
2023-03-13T10:38:51.384Z,1.88
2023-03-13T10:41:30.455Z,3.63
2023-03-13T10:44:02.404Z,1.83
2023-03-13T10:46:33.167Z,1.58
2023-03-13T10:49:04.238Z,1.65
2023-03-13T10:51:37.702Z,2.63
2023-03-13T10:54:17.137Z,2.85
2023-03-13T10:56:46.817Z,1.30
2023-03-13T10:59:24.709Z,1.92
2023-03-13T11:01:53.965Z,1.88
2023-03-13T11:04:32.414Z,2.17
2023-03-13T11:07:04.601Z,2.70
2023-03-13T11:09:33.371Z,1.60
2023-03-13T11:12:06.583Z,2.38
2023-03-13T11:14:36.103Z,1.27
2023-03-13T11:17:10.776Z,1.90
2023-03-13T11:19:56.346Z,2.30
2023-03-13T11:22:48.483Z,2.53
2023-03-13T11:25:22.337Z,3.08
2023-03-13T11:28:00.176Z,2.63
2023-03-13T11:30:46.349Z,2.10
2023-03-13T11:33:37.875Z,2.90
2023-03-13T11:36:15.615Z,3.20
2023-03-13T11:38:47.739Z,2.78
2023-03-13T11:41:34.384Z,1.15
2023-03-13T11:44:24.909Z,0.88
2023-03-13T11:47:18.022Z,2.00
2023-03-13T11:50:20.776Z,1.38
2023-03-13T11:53:00.608Z,1.70
2023-03-13T11:55:43.476Z,0.30
2023-03-13T11:58:36.232Z,2.28
2023-03-13T12:01:11.535Z,0.50
2023-03-13T12:03:44.870Z,1.05
2023-03-13T12:06:28.394Z,1.25
2023-03-13T12:09:01.840Z,0.93
2023-03-13T12:11:34.273Z,2.45
2023-03-13T12:14:04.955Z,0.80
2023-03-13T12:16:43.504Z,1.50
2023-03-13T12:19:21.569Z,0.43
2023-03-13T12:21:53.919Z,1.02
2023-03-13T12:24:28.201Z,0.90
2023-03-13T12:27:00.493Z,0.98
2023-03-13T12:29:43.620Z,0.80
2023-03-13T12:32:18.014Z,0.70
2023-03-13T12:34:55.373Z,2.40
2023-03-13T12:37:31.641Z,2.17
2023-03-13T12:40:10.441Z,0.75
2023-03-13T12:42:48.524Z,0.70
2023-03-13T12:45:19.960Z,2.35
2023-03-13T12:48:09.262Z,5.50
2023-03-13T12:50:50.960Z,2.70
2023-03-13T12:53:58.685Z,1.42
2023-03-13T12:56:40.957Z,3.35
2023-03-13T12:59:14.505Z,1.88
2023-03-13T13:01:45.979Z,3.15
2023-03-13T13:04:18.805Z,3.03
2023-03-13T13:06:58.040Z,3.70
2023-03-13T13:09:28.717Z,2.20
2023-03-13T13:11:59.299Z,3.78
2023-03-13T13:17:43.182Z,2.35
2023-03-13T13:20:37.991Z,2.58
2023-03-13T13:23:34.874Z,3.13
2023-03-13T13:26:49.002Z,1.98
2023-03-13T13:29:59.804Z,1.25
2023-03-13T13:32:46.878Z,1.83
2023-03-13T13:35:37.792Z,1.60
2023-03-13T13:38:36.672Z,1.55
2023-03-13T13:41:23.512Z,2.30
2023-03-13T13:44:28.687Z,1.70
2023-03-13T13:46:58.903Z,1.70
2023-03-13T13:49:33.641Z,2.08
2023-03-13T13:52:32.291Z,1.85
2023-03-13T13:55:00.782Z,1.08
2023-03-13T13:57:33.694Z,0.90
2023-03-13T14:00:16.185Z,3.05
2023-03-13T14:02:51.234Z,1.10
2023-03-13T14:05:22.868Z,2.65
2023-03-13T14:10:46.817Z,1.75
2023-03-13T14:13:20.784Z,1.00
2023-03-13T14:15:50.877Z,1.77
2023-03-13T14:18:23.413Z,2.53
2023-03-13T14:21:00.132Z,1.92
2023-03-13T14:23:40.068Z,3.28
2023-03-13T14:26:14.841Z,2.20
2023-03-13T14:28:45.123Z,0.88
2023-03-13T14:31:23.569Z,2.60
2023-03-13T14:33:52.064Z,2.65
2023-03-13T14:36:20.289Z,2.40
2023-03-13T14:38:57.950Z,1.85
2023-03-13T14:41:32.207Z,1.98
2023-03-13T14:44:06.514Z,1.60
2023-03-13T14:46:37.230Z,4.90
2023-03-13T14:49:18.374Z,1.90
2023-03-13T14:51:47.594Z,1.15
2023-03-13T14:54:32.337Z,1.60
2023-03-13T14:57:06.282Z,1.30
2023-03-13T14:59:34.585Z,2.10
2023-03-13T15:02:05.531Z,1.67
2023-03-13T15:04:51.156Z,1.80
2023-03-13T15:07:19.947Z,1.55
2023-03-13T15:09:51.116Z,1.70
2023-03-13T15:12:21.759Z,1.85
2023-03-13T15:14:51.457Z,4.10
2023-03-13T15:17:22.201Z,2.60
2023-03-13T15:19:52.792Z,5.03
2023-03-13T15:22:26.347Z,4.35
2023-03-13T15:25:05.805Z,3.60
2023-03-13T15:27:34.857Z,3.80
2023-03-13T15:30:03.129Z,5.00
2023-03-13T15:32:33.829Z,5.70
2023-03-13T15:35:03.415Z,5.90
2023-03-13T15:37:32.270Z,5.57
2023-03-13T15:40:07.480Z,5.78
2023-03-13T15:42:35.768Z,5.13
2023-03-13T15:45:04.064Z,6.18
2023-03-13T15:47:32.297Z,4.60
2023-03-13T15:50:00.685Z,5.15
2023-03-13T15:52:30.346Z,5.78
2023-03-13T15:54:58.631Z,4.20
2023-03-13T15:57:29.375Z,5.38
2023-03-13T15:59:57.520Z,5.47
2023-03-13T16:02:26.270Z,5.63
2023-03-13T16:04:56.037Z,5.15
2023-03-13T16:07:24.455Z,6.45
2023-03-13T16:09:52.776Z,10.88
2023-03-13T16:12:21.031Z,9.98
2023-03-13T16:14:50.628Z,5.18
2023-03-13T16:17:22.039Z,5.88
2023-03-13T16:19:50.278Z,7.78
2023-03-13T16:22:18.568Z,7.55
2023-03-13T16:24:46.846Z,6.82
2023-03-13T16:27:16.861Z,6.55
2023-03-13T16:29:45.383Z,3.95
2023-03-13T16:32:18.725Z,7.68
2023-03-13T16:34:48.612Z,5.47
2023-03-13T16:37:21.335Z,5.13
2023-03-13T16:39:50.705Z,6.28
2023-03-13T16:42:19.345Z,5.43
2023-03-13T16:44:47.557Z,4.07
2023-03-13T16:47:23.110Z,4.82
2023-03-13T16:49:51.460Z,3.63
2023-03-13T16:52:20.940Z,4.68
2023-03-13T16:54:49.282Z,3.55
2023-03-13T16:57:20.864Z,6.32
2023-03-13T16:59:49.082Z,2.97
2023-03-13T17:02:19.039Z,3.55
2023-03-13T17:04:49.616Z,3.65
2023-03-13T17:07:20.623Z,5.65
2023-03-13T17:09:49.026Z,4.07
2023-03-13T17:12:17.573Z,4.70
2023-03-13T17:14:46.521Z,5.05
2023-03-13T17:17:17.685Z,4.70
2023-03-13T17:19:46.332Z,4.13
2023-03-13T17:22:18.457Z,3.55
2023-03-13T17:24:48.536Z,5.67
2023-03-13T17:27:18.107Z,3.88
2023-03-13T17:29:46.448Z,3.88
2023-03-13T17:32:15.944Z,4.88
2023-03-13T17:34:44.250Z,3.67
2023-03-13T17:37:18.673Z,3.75
2023-03-13T17:39:47.758Z,5.32
2023-03-13T17:42:16.387Z,5.43
2023-03-13T17:44:44.661Z,5.93
2023-03-13T17:47:15.650Z,15.48
2023-03-13T17:49:44.368Z,243.32
2023-03-13T17:52:18.754Z,312.60
2023-03-13T17:54:47.364Z,295.17
2023-03-13T17:57:18.050Z,326.50
2023-03-13T17:59:46.824Z,229.93
2023-03-13T18:02:16.978Z,309.73
2023-03-13T18:04:45.777Z,286.63
2023-03-13T18:07:28.781Z,259.98
2023-03-13T18:09:57.114Z,275.35
2023-03-13T18:12:25.279Z,245.98
2023-03-13T18:14:53.493Z,249.27
2023-03-13T18:17:23.982Z,327.98
2023-03-13T18:19:52.655Z,346.67
2023-03-13T18:22:22.636Z,297.55
2023-03-13T18:24:50.860Z,398.25
2023-03-13T18:27:21.222Z,447.10
2023-03-13T18:29:50.632Z,336.55
2023-03-13T18:32:19.907Z,320.63
2023-03-13T18:34:48.340Z,371.40
2023-03-13T18:37:23.800Z,436.30
2023-03-13T18:39:52.188Z,431.67
2023-03-13T18:42:20.532Z,402.65
2023-03-13T18:44:48.859Z,337.02
2023-03-13T18:47:20.759Z,278.98
2023-03-13T18:49:51.007Z,254.40
2023-03-13T18:52:19.571Z,238.70
2023-03-13T18:54:49.366Z,210.32
2023-03-13T18:57:21.014Z,206.07
2023-03-13T19:02:19.215Z,143.40
2023-03-13T19:04:47.885Z,137.07
2023-03-13T19:07:19.469Z,123.55
2023-03-13T19:12:17.225Z,109.93
2023-03-13T19:14:45.436Z,107.70
2023-03-13T19:17:20.179Z,84.80
2023-03-13T19:19:48.492Z,85.95
2023-03-13T19:22:16.840Z,82.35
2023-03-13T19:24:45.121Z,74.75
2023-03-13T19:27:17.062Z,69.45
2023-03-13T19:29:46.254Z,55.97
2023-03-13T19:32:16.584Z,53.53
2023-03-13T19:34:44.931Z,51.80
2023-03-13T19:37:14.423Z,50.22
2023-03-13T19:39:43.122Z,46.70
2023-03-13T19:42:11.432Z,43.00
2023-03-13T19:44:42.153Z,44.22
2023-03-13T19:47:14.460Z,42.27
2023-03-13T19:49:42.974Z,38.92
2023-03-13T19:52:11.383Z,39.15
2023-03-13T19:54:39.630Z,37.50
2023-03-13T19:57:10.825Z,35.70
2023-03-13T19:59:40.490Z,34.58
2023-03-13T20:02:10.046Z,32.05
2023-03-13T20:04:39.551Z,28.15
2023-03-13T20:07:08.296Z,27.77
2023-03-13T20:09:36.901Z,27.35
2023-03-13T20:12:05.938Z,25.73
2023-03-13T20:14:34.248Z,24.48
2023-03-13T20:17:04.446Z,22.63
2023-03-13T20:19:32.963Z,22.05
2023-03-13T20:22:03.742Z,22.25
2023-03-13T20:24:33.602Z,18.35
2023-03-13T20:27:02.066Z,17.25
2023-03-13T20:29:30.278Z,18.33
2023-03-13T20:32:00.366Z,15.23
2023-03-13T20:34:30.004Z,15.77
2023-03-13T20:36:59.951Z,15.90
2023-03-13T20:39:28.791Z,14.75
2023-03-13T20:41:57.488Z,14.02
2023-03-13T20:44:25.811Z,10.30
2023-03-13T20:46:54.396Z,11.20
2023-03-13T20:49:22.629Z,8.68
2023-03-13T20:51:52.531Z,12.32
2023-03-13T20:54:21.905Z,7.32
2023-03-13T20:56:50.376Z,9.57
2023-03-13T20:59:18.584Z,7.82
2023-03-13T21:01:46.888Z,7.00
2023-03-13T21:04:15.261Z,8.05
2023-03-13T21:06:43.480Z,8.07
2023-03-13T21:09:13.510Z,6.82
2023-03-13T21:11:41.756Z,6.05
2023-03-13T21:14:10.051Z,6.50
2023-03-13T21:16:38.342Z,7.20
2023-03-13T21:19:06.577Z,7.30
2023-03-13T21:21:35.041Z,8.85
2023-03-13T21:24:03.603Z,8.23
2023-03-13T21:26:33.558Z,7.03
2023-03-13T21:29:03.488Z,7.25
2023-03-13T21:31:31.890Z,6.60
2023-03-13T21:34:00.148Z,7.05
2023-03-13T21:36:28.437Z,6.55
2023-03-13T21:38:56.635Z,7.68
2023-03-13T21:41:24.904Z,7.13
2023-03-13T21:43:55.900Z,6.13
2023-03-13T21:46:25.296Z,5.57
2023-03-13T21:48:53.589Z,8.50
2023-03-13T21:51:21.807Z,5.97
2023-03-13T21:53:50.260Z,6.47
2023-03-13T21:56:18.472Z,7.70
2023-03-13T21:58:46.985Z,3.85
2023-03-13T22:01:17.557Z,4.93
2023-03-13T22:03:45.916Z,5.90
2023-03-13T22:06:15.389Z,5.60
2023-03-13T22:08:44.217Z,5.93
2023-03-13T22:11:12.595Z,4.60
2023-03-13T22:13:41.132Z,3.90
2023-03-13T22:16:11.483Z,3.83
2023-03-13T22:18:41.906Z,5.45
2023-03-13T22:21:10.141Z,4.10
2023-03-13T22:23:38.384Z,4.57
2023-03-13T22:26:07.163Z,4.72
2023-03-13T22:28:35.408Z,2.75
2023-03-13T22:31:04.285Z,4.22
2023-03-13T22:33:33.561Z,3.47
2023-03-13T22:36:03.213Z,4.32
2023-03-13T22:38:31.550Z,2.80
2023-03-13T22:41:01.123Z,2.70
2023-03-13T22:43:29.681Z,2.40
2023-03-13T22:45:59.072Z,2.03
2023-03-13T22:48:27.803Z,2.88
2023-03-13T22:51:08.530Z,1.92
2023-03-13T22:53:38.372Z,2.00
2023-03-13T22:56:09.943Z,2.50
2023-03-13T23:01:08.006Z,1.83
2023-03-13T23:03:36.372Z,1.63
2023-03-13T23:06:08.948Z,1.00
2023-03-13T23:08:37.406Z,2.83
2023-03-13T23:11:06.839Z,2.47
2023-03-13T23:13:35.332Z,1.17
2023-03-13T23:16:07.587Z,2.65
2023-03-13T23:18:36.704Z,1.20
2023-03-13T23:21:08.413Z,0.60
2023-03-13T23:23:36.929Z,0.95
2023-03-13T23:26:08.097Z,0.63
2023-03-13T23:28:37.141Z,0.55
2023-03-13T23:31:11.493Z,0.60
2023-03-13T23:34:12.968Z,1.23
2023-03-13T23:36:51.323Z,0.60
2023-03-13T23:39:42.133Z,1.73
2023-03-13T23:42:16.452Z,0.90
2023-03-13T23:44:52.310Z,0.52
2023-03-13T23:47:33.426Z,0.90
2023-03-13T23:50:09.740Z,0.60
2023-03-13T23:53:14.545Z,0.93
2023-03-13T23:55:57.371Z,1.08
2023-03-13T23:59:15.754Z,0.30
